createdAt,value
2023-03-21T00:00:42.683Z,69.76
2023-03-21T00:03:09.284Z,69.88
2023-03-21T00:05:41.212Z,69.79
2023-03-21T00:08:08.643Z,69.82
2023-03-21T00:10:41.614Z,70.03
2023-03-21T00:13:14.743Z,70.15
2023-03-21T00:16:04.485Z,70.17
2023-03-21T00:18:36.715Z,70.31
2023-03-21T00:21:37.795Z,70.21
2023-03-21T00:23:52.542Z,70.37
2023-03-21T00:26:19.136Z,69.97
2023-03-21T00:28:45.981Z,69.92
2023-03-21T00:31:12.739Z,70.42
2023-03-21T00:33:39.527Z,69.97
2023-03-21T00:36:08.044Z,70.41
2023-03-21T00:38:36.199Z,69.92
2023-03-21T00:41:21.074Z,70.21
2023-03-21T00:43:55.613Z,69.91
2023-03-21T00:46:23.518Z,69.97
2023-03-21T00:48:52.008Z,70.21
2023-03-21T00:51:26.711Z,70.31
2023-03-21T00:53:57.515Z,69.78
2023-03-21T00:56:24.559Z,70.04
2023-03-21T00:58:51.300Z,69.83
2023-03-21T01:01:18.718Z,70.14
2023-03-21T01:03:50.836Z,69.96
2023-03-21T01:06:19.539Z,70.02
2023-03-21T01:08:53.230Z,70.24
2023-03-21T01:11:26.798Z,69.98
2023-03-21T01:14:14.661Z,69.85
2023-03-21T01:16:41.251Z,70.10
2023-03-21T01:19:22.221Z,70.26
2023-03-21T01:21:51.465Z,70.29
2023-03-21T01:24:18.049Z,70.25
2023-03-21T01:26:44.578Z,70.32
2023-03-21T01:29:11.693Z,70.43
2023-03-21T01:31:38.689Z,70.35
2023-03-21T01:34:05.308Z,70.46
2023-03-21T01:36:32.203Z,70.46
2023-03-21T01:38:58.910Z,70.49
2023-03-21T01:41:44.061Z,70.70
2023-03-21T01:44:18.065Z,70.80
2023-03-21T01:47:00.498Z,70.87
2023-03-21T01:49:47.912Z,71.07
2023-03-21T01:52:33.579Z,70.79
2023-03-21T01:55:08.460Z,71.02
2023-03-21T01:57:49.407Z,71.01
2023-03-21T02:00:24.998Z,70.81
2023-03-21T02:02:52.573Z,70.59
2023-03-21T02:05:27.379Z,70.88
2023-03-21T02:07:54.080Z,70.91
2023-03-21T02:10:21.297Z,70.49
2023-03-21T02:12:48.211Z,71.00
2023-03-21T02:15:16.220Z,70.83
2023-03-21T02:17:58.771Z,70.53
2023-03-21T02:20:54.526Z,70.28
2023-03-21T02:23:21.027Z,70.58
2023-03-21T02:26:19.083Z,70.65
2023-03-21T02:28:55.859Z,70.76
2023-03-21T02:31:32.791Z,70.88
2023-03-21T02:34:21.182Z,70.93
2023-03-21T02:37:06.245Z,70.92
2023-03-21T02:40:11.882Z,71.40
2023-03-21T02:43:01.264Z,71.42
2023-03-21T02:45:54.641Z,71.25
2023-03-21T02:48:50.706Z,71.34
2023-03-21T02:51:23.311Z,71.25
2023-03-21T02:54:16.674Z,71.43
2023-03-21T02:56:43.058Z,71.38
2023-03-21T02:59:10.749Z,71.48
2023-03-21T03:01:37.399Z,71.44
2023-03-21T03:04:04.205Z,71.43
2023-03-21T03:07:01.948Z,71.60
2023-03-21T03:09:38.888Z,71.78
2023-03-21T03:12:18.584Z,71.44
2023-03-21T03:15:23.816Z,71.67
2023-03-21T03:18:15.435Z,71.73
2023-03-21T03:20:48.077Z,71.76
2023-03-21T03:23:42.164Z,71.40
2023-03-21T03:26:41.117Z,71.81
2023-03-21T03:29:12.304Z,71.73
2023-03-21T03:31:47.414Z,71.50
2023-03-21T03:34:20.764Z,72.13
2023-03-21T03:36:51.860Z,71.83
2023-03-21T03:39:19.150Z,71.72
2023-03-21T03:42:07.955Z,72.01
2023-03-21T03:44:38.040Z,72.08
2023-03-21T03:47:08.721Z,71.75
2023-03-21T03:49:40.932Z,71.72
2023-03-21T03:52:18.269Z,71.83
2023-03-21T03:54:47.883Z,71.92
2023-03-21T03:57:14.655Z,72.19
2023-03-21T03:59:44.508Z,72.08
2023-03-21T04:02:11.635Z,72.47
2023-03-21T04:04:38.584Z,72.11
2023-03-21T04:07:06.416Z,72.04
2023-03-21T04:09:43.732Z,72.31
2023-03-21T04:12:12.825Z,72.53
2023-03-21T04:14:45.660Z,72.64
2023-03-21T04:17:14.178Z,72.44
2023-03-21T04:19:40.751Z,72.77
2023-03-21T04:22:07.390Z,72.53
2023-03-21T04:24:34.486Z,73.09
2023-03-21T04:27:01.232Z,72.64
2023-03-21T04:29:29.844Z,73.18
2023-03-21T04:31:56.660Z,72.96
2023-03-21T04:34:24.170Z,73.02
2023-03-21T04:36:54.164Z,73.17
2023-03-21T04:39:22.049Z,73.15
2023-03-21T04:41:49.698Z,73.07
2023-03-21T04:44:17.484Z,73.11
2023-03-21T04:46:44.170Z,73.29
2023-03-21T04:49:10.875Z,73.34
2023-03-21T04:51:38.230Z,73.31
2023-03-21T04:54:05.945Z,73.29
2023-03-21T04:56:33.820Z,73.49
2023-03-21T04:59:03.921Z,73.30
2023-03-21T05:01:30.897Z,73.40
2023-03-21T05:04:01.888Z,73.05
2023-03-21T05:06:29.514Z,73.47
2023-03-21T05:09:00.178Z,73.33
2023-03-21T05:11:28.217Z,73.49
2023-03-21T05:13:54.872Z,73.94
2023-03-21T05:16:25.473Z,73.58
2023-03-21T05:18:55.631Z,73.67
2023-03-21T05:21:23.273Z,73.30
2023-03-21T05:23:55.748Z,73.63
2023-03-21T05:26:23.261Z,73.33
2023-03-21T05:28:50.529Z,73.43
2023-03-21T05:31:18.891Z,73.64
2023-03-21T05:33:46.388Z,73.81
2023-03-21T05:36:13.845Z,73.54
2023-03-21T05:38:46.161Z,73.37
2023-03-21T05:41:19.195Z,73.49
2023-03-21T05:43:46.007Z,73.65
2023-03-21T05:46:13.038Z,73.18
2023-03-21T05:48:39.759Z,73.13
2023-03-21T05:51:06.570Z,73.38
2023-03-21T05:53:33.112Z,73.21
2023-03-21T05:55:59.723Z,73.48
2023-03-21T05:58:26.254Z,73.76
2023-03-21T06:00:52.858Z,73.37
2023-03-21T06:03:19.449Z,72.50
2023-03-21T06:05:46.209Z,71.35
2023-03-21T06:08:13.049Z,70.56
2023-03-21T06:10:39.764Z,70.00
2023-03-21T06:13:06.490Z,68.08
2023-03-21T06:15:33.398Z,68.00
2023-03-21T06:17:59.906Z,69.17
2023-03-21T06:20:26.512Z,68.62
2023-03-21T06:22:53.034Z,68.76
2023-03-21T06:25:19.708Z,69.27
2023-03-21T06:27:46.220Z,69.68
2023-03-21T06:30:13.788Z,69.88
2023-03-21T06:32:40.540Z,70.61
2023-03-21T06:35:07.516Z,70.34
2023-03-21T06:37:34.133Z,71.22
2023-03-21T06:40:00.670Z,71.17
2023-03-21T06:42:27.162Z,71.23
2023-03-21T06:44:53.676Z,71.19
2023-03-21T06:47:20.185Z,71.27
2023-03-21T06:49:46.710Z,71.57
2023-03-21T06:52:13.272Z,71.99
2023-03-21T06:54:39.958Z,72.25
2023-03-21T06:57:06.549Z,72.28
2023-03-21T06:59:33.231Z,72.37
2023-03-21T07:01:59.846Z,72.26
2023-03-21T07:04:27.201Z,71.98
2023-03-21T07:06:54.146Z,72.05
2023-03-21T07:09:24.557Z,72.05
2023-03-21T07:11:53.621Z,72.04
2023-03-21T07:14:20.354Z,72.26
2023-03-21T07:16:47.020Z,72.07
2023-03-21T07:19:14.134Z,71.72
2023-03-21T07:21:40.652Z,71.66
2023-03-21T07:24:07.484Z,71.69
2023-03-21T07:26:34.158Z,71.91
2023-03-21T07:29:00.678Z,71.65
2023-03-21T07:31:27.338Z,71.55
2023-03-21T07:33:54.101Z,72.17
2023-03-21T07:36:21.432Z,71.67
2023-03-21T07:38:47.975Z,72.10
2023-03-21T07:43:46.271Z,72.28
2023-03-21T07:46:12.934Z,72.20
2023-03-21T07:48:39.529Z,72.76
2023-03-21T07:51:06.607Z,73.16
2023-03-21T07:53:33.419Z,72.94
2023-03-21T07:55:59.944Z,73.55
2023-03-21T07:58:27.282Z,74.11
2023-03-21T08:00:55.668Z,74.15
2023-03-21T08:03:24.056Z,74.72
2023-03-21T08:05:50.798Z,74.90
2023-03-21T08:08:17.529Z,74.86
2023-03-21T08:10:44.406Z,74.76
2023-03-21T08:13:10.992Z,75.36
2023-03-21T08:15:38.156Z,75.56
2023-03-21T08:18:04.926Z,75.11
2023-03-21T08:20:31.544Z,75.32
2023-03-21T08:22:58.121Z,74.92
2023-03-21T08:25:24.761Z,75.19
2023-03-21T08:27:52.084Z,74.75
2023-03-21T08:30:21.722Z,75.66
2023-03-21T08:32:49.227Z,75.32
2023-03-21T08:35:18.957Z,75.45
2023-03-21T08:37:45.601Z,75.24
2023-03-21T08:40:15.811Z,75.23
2023-03-21T08:42:43.887Z,74.64
2023-03-21T08:45:12.105Z,74.63
2023-03-21T08:47:39.224Z,74.84
2023-03-21T08:50:08.368Z,74.21
2023-03-21T08:52:35.294Z,74.57
2023-03-21T08:55:02.393Z,74.34
2023-03-21T08:57:29.837Z,73.95
2023-03-21T08:59:56.452Z,73.99
2023-03-21T09:02:23.444Z,73.81
2023-03-21T09:04:53.206Z,74.14
2023-03-21T09:07:20.177Z,74.51
2023-03-21T09:09:53.614Z,74.75
2023-03-21T09:12:24.708Z,74.42
2023-03-21T09:14:53.283Z,74.70
2023-03-21T09:17:21.265Z,74.04
2023-03-21T09:19:49.752Z,74.30
2023-03-21T09:22:17.992Z,74.33
2023-03-21T09:24:47.767Z,74.71
2023-03-21T09:27:17.556Z,75.03
2023-03-21T09:29:44.747Z,74.86
2023-03-21T09:32:12.206Z,74.58
2023-03-21T09:34:41.175Z,75.18
2023-03-21T09:37:13.115Z,74.55
2023-03-21T09:39:44.845Z,74.52
2023-03-21T09:42:27.381Z,74.99
2023-03-21T09:45:06.397Z,75.05
2023-03-21T09:47:54.018Z,74.95
2023-03-21T09:50:31.683Z,74.55
2023-03-21T09:53:01.746Z,74.51
2023-03-21T09:55:31.594Z,74.89
2023-03-21T09:58:26.175Z,75.38
2023-03-21T10:00:57.457Z,75.10
2023-03-21T10:03:31.715Z,74.50
2023-03-21T10:06:01.233Z,74.57
2023-03-21T10:08:32.696Z,74.25
2023-03-21T10:11:06.679Z,74.29
2023-03-21T10:13:36.064Z,74.23
2023-03-21T10:16:14.386Z,74.34
2023-03-21T10:18:42.683Z,74.06
2023-03-21T10:21:37.358Z,74.39
2023-03-21T10:24:04.450Z,73.96
2023-03-21T10:26:31.382Z,72.59
2023-03-21T10:29:02.477Z,72.96
2023-03-21T10:31:30.730Z,73.19
2023-03-21T10:34:01.984Z,72.20
2023-03-21T10:36:31.672Z,72.25
2023-03-21T10:39:07.891Z,71.95
2023-03-21T10:41:34.648Z,72.62
2023-03-21T10:44:05.424Z,72.40
2023-03-21T10:46:34.763Z,72.03
2023-03-21T10:49:03.139Z,72.31
2023-03-21T10:51:36.678Z,71.94
2023-03-21T10:54:11.716Z,72.35
2023-03-21T10:56:43.543Z,72.35
2023-03-21T10:59:20.485Z,72.54
2023-03-21T11:01:51.646Z,71.56
2023-03-21T11:04:22.441Z,71.81
2023-03-21T11:07:14.385Z,72.21
2023-03-21T11:10:00.384Z,71.35
2023-03-21T11:12:34.857Z,71.54
2023-03-21T11:15:36.781Z,71.92
2023-03-21T11:18:21.928Z,71.10
2023-03-21T11:21:02.808Z,70.74
2023-03-21T11:23:32.081Z,70.67
2023-03-21T11:26:03.025Z,70.11
2023-03-21T11:28:37.461Z,69.99
2023-03-21T11:31:06.097Z,70.78
2023-03-21T11:33:40.675Z,70.37
2023-03-21T11:36:24.284Z,70.76
2023-03-21T11:38:58.730Z,70.50
2023-03-21T11:41:29.367Z,70.26
2023-03-21T11:43:58.573Z,70.12
2023-03-21T11:46:30.798Z,69.64
2023-03-21T11:48:58.151Z,69.93
2023-03-21T11:52:01.706Z,69.70
2023-03-21T11:54:41.874Z,69.30
2023-03-21T11:57:22.738Z,67.59
2023-03-21T12:00:13.938Z,67.77
2023-03-21T12:02:55.842Z,67.62
2023-03-21T12:05:52.339Z,67.89
2023-03-21T12:08:33.872Z,67.57
2023-03-21T12:11:25.519Z,67.20
2023-03-21T12:14:01.283Z,66.57
2023-03-21T12:16:43.462Z,65.79
2023-03-21T12:19:20.564Z,66.14
2023-03-21T12:21:59.185Z,64.97
2023-03-21T12:24:47.969Z,63.96
2023-03-21T12:27:42.814Z,63.75
2023-03-21T12:30:24.689Z,62.72
2023-03-21T12:33:13.684Z,63.36
2023-03-21T12:35:44.615Z,63.59
2023-03-21T12:38:26.173Z,64.02
2023-03-21T12:41:27.396Z,63.40
2023-03-21T12:44:02.309Z,63.03
2023-03-21T12:46:47.389Z,63.41
2023-03-21T12:49:23.409Z,63.00
2023-03-21T12:51:55.095Z,63.33
2023-03-21T12:54:41.824Z,63.23
2023-03-21T12:57:15.190Z,63.00
2023-03-21T13:00:14.030Z,63.56
2023-03-21T13:02:45.230Z,63.11
2023-03-21T13:05:18.085Z,62.97
2023-03-21T13:07:50.503Z,62.85
2023-03-21T13:10:24.243Z,62.93
2023-03-21T13:12:53.553Z,62.37
2023-03-21T13:15:29.527Z,59.55
2023-03-21T13:18:06.364Z,61.15
2023-03-21T13:20:46.345Z,59.65
2023-03-21T13:23:13.969Z,58.70
2023-03-21T13:25:47.679Z,57.02
2023-03-21T13:28:29.216Z,56.69
2023-03-21T13:31:50.964Z,56.60
2023-03-21T13:34:22.557Z,56.29
2023-03-21T13:36:51.880Z,57.08
2023-03-21T13:39:26.863Z,55.84
2023-03-21T13:41:54.786Z,55.80
2023-03-21T13:44:33.592Z,56.45
2023-03-21T13:47:01.717Z,56.70
2023-03-21T13:49:32.388Z,55.99
2023-03-21T13:52:01.307Z,55.79
2023-03-21T13:54:53.069Z,56.19
2023-03-21T13:57:32.098Z,55.75
2023-03-21T14:00:39.809Z,55.99
2023-03-21T14:03:09.541Z,55.50
2023-03-21T14:05:37.519Z,55.07
2023-03-21T14:08:24.625Z,54.87
2023-03-21T14:10:59.756Z,53.88
2023-03-21T14:13:28.510Z,54.43
2023-03-21T14:16:17.297Z,55.38
2023-03-21T14:18:56.098Z,54.84
2023-03-21T14:21:25.074Z,55.28
2023-03-21T14:24:06.575Z,54.50
2023-03-21T14:26:36.488Z,54.61
2023-03-21T14:29:12.359Z,53.72
2023-03-21T14:31:47.347Z,55.04
2023-03-21T14:34:16.800Z,54.83
2023-03-21T14:36:51.649Z,54.34
2023-03-21T14:39:31.423Z,54.91
2023-03-21T14:42:20.843Z,56.16
2023-03-21T14:44:55.167Z,55.49
2023-03-21T14:47:26.220Z,56.28
2023-03-21T14:49:53.761Z,55.61
2023-03-21T14:52:47.805Z,56.50
2023-03-21T14:55:17.068Z,55.98
2023-03-21T14:57:43.828Z,55.72
2023-03-21T15:00:20.967Z,55.93
2023-03-21T15:02:47.655Z,55.31
2023-03-21T15:05:20.710Z,54.82
2023-03-21T15:07:55.262Z,54.23
2023-03-21T15:10:22.013Z,54.50
2023-03-21T15:12:53.077Z,54.07
2023-03-21T15:15:20.312Z,53.84
2023-03-21T15:17:47.769Z,54.31
2023-03-21T15:20:16.088Z,54.46
2023-03-21T15:22:47.437Z,53.84
2023-03-21T15:25:20.383Z,54.03
2023-03-21T15:27:49.732Z,53.88
2023-03-21T15:30:28.911Z,55.27
2023-03-21T15:32:57.683Z,55.11
2023-03-21T15:35:35.525Z,55.32
2023-03-21T15:38:02.408Z,54.73
2023-03-21T15:40:31.890Z,54.56
2023-03-21T15:43:18.826Z,54.12
2023-03-21T15:45:49.277Z,54.03
2023-03-21T15:48:16.742Z,53.09
2023-03-21T15:50:51.994Z,52.69
2023-03-21T15:53:19.778Z,50.97
2023-03-21T15:55:52.652Z,50.61
2023-03-21T15:58:22.137Z,50.83
2023-03-21T16:00:57.528Z,49.78
2023-03-21T16:03:27.611Z,48.07
2023-03-21T16:06:04.787Z,47.90
2023-03-21T16:08:37.114Z,47.08
2023-03-21T16:11:18.973Z,45.72
2023-03-21T16:13:45.930Z,45.07
2023-03-21T16:16:21.932Z,44.63
2023-03-21T16:18:49.242Z,45.03
2023-03-21T16:21:18.387Z,45.16
2023-03-21T16:23:45.935Z,43.86
2023-03-21T16:26:16.615Z,43.55
2023-03-21T16:28:44.352Z,44.56
2023-03-21T16:31:15.522Z,43.41
2023-03-21T16:33:42.588Z,43.23
2023-03-21T16:36:18.626Z,42.54
2023-03-21T16:38:47.734Z,42.57
2023-03-21T16:41:14.773Z,43.25
2023-03-21T16:43:45.257Z,43.78
2023-03-21T16:46:17.255Z,44.23
2023-03-21T16:48:44.751Z,45.31
2023-03-21T16:53:49.343Z,45.98
2023-03-21T16:56:23.063Z,45.70
2023-03-21T16:58:50.027Z,46.31
2023-03-21T17:01:20.128Z,46.01
2023-03-21T17:03:48.008Z,46.86
2023-03-21T17:06:19.480Z,47.46
2023-03-21T17:08:46.972Z,47.08
2023-03-21T17:11:16.581Z,47.01
2023-03-21T17:13:45.857Z,47.41
2023-03-21T17:16:26.676Z,47.40
2023-03-21T17:18:53.912Z,47.77
2023-03-21T17:21:26.172Z,48.35
2023-03-21T17:23:53.202Z,48.71
2023-03-21T17:26:22.704Z,48.41
2023-03-21T17:28:49.901Z,49.33
2023-03-21T17:31:19.640Z,49.84
2023-03-21T17:33:47.316Z,49.43
2023-03-21T17:36:15.404Z,50.03
2023-03-21T17:38:42.914Z,49.86
2023-03-21T17:41:12.288Z,50.07
2023-03-21T17:43:39.205Z,50.49
2023-03-21T17:46:05.979Z,51.34
2023-03-21T17:48:32.932Z,51.42
2023-03-21T17:50:59.445Z,51.72
2023-03-21T17:53:26.679Z,52.21
2023-03-21T17:55:53.241Z,51.77
2023-03-21T17:58:19.821Z,52.39
2023-03-21T18:00:49.031Z,52.73
2023-03-21T18:03:17.768Z,53.93
2023-03-21T18:05:44.978Z,54.27
2023-03-21T18:08:12.739Z,54.69
2023-03-21T18:10:41.333Z,55.26
2023-03-21T18:13:08.236Z,56.22
2023-03-21T18:15:37.712Z,56.50
2023-03-21T18:18:05.455Z,57.13
2023-03-21T18:23:19.285Z,57.84
2023-03-21T18:25:45.978Z,58.45
2023-03-21T18:28:13.245Z,58.49
2023-03-21T18:31:05.284Z,59.17
2023-03-21T18:33:27.735Z,59.23
2023-03-21T18:35:59.220Z,59.19
2023-03-21T18:38:28.947Z,59.08
2023-03-21T18:40:56.757Z,59.53
2023-03-21T18:46:10.895Z,59.69
2023-03-21T18:48:37.469Z,61.05
2023-03-21T18:51:04.553Z,60.77
2023-03-21T18:53:31.198Z,61.34
2023-03-21T18:55:57.846Z,61.33
2023-03-21T18:58:25.198Z,60.71
2023-03-21T19:00:53.658Z,61.14
2023-03-21T19:03:35.385Z,60.96
2023-03-21T19:06:04.871Z,60.71
2023-03-21T19:08:34.005Z,60.64
2023-03-21T19:11:04.441Z,60.44
2023-03-21T19:13:33.580Z,60.57
2023-03-21T19:16:02.363Z,60.30
2023-03-21T19:18:50.255Z,60.59
2023-03-21T19:21:17.122Z,60.34
2023-03-21T19:24:20.954Z,60.24
2023-03-21T19:26:30.471Z,60.31
2023-03-21T19:28:57.424Z,60.78
2023-03-21T19:31:24.465Z,60.76
2023-03-21T19:33:51.173Z,61.69
2023-03-21T19:36:22.524Z,61.06
2023-03-21T19:38:49.695Z,61.70
2023-03-21T19:41:16.631Z,61.42
2023-03-21T19:43:53.114Z,61.98
2023-03-21T19:46:22.651Z,62.75
2023-03-21T19:48:50.241Z,62.92
2023-03-21T19:51:32.940Z,63.63
2023-03-21T19:54:02.729Z,63.96
2023-03-21T19:56:31.379Z,63.43
2023-03-21T19:58:58.690Z,64.48
2023-03-21T20:01:26.335Z,64.14
2023-03-21T20:03:53.779Z,64.77
2023-03-21T20:06:23.388Z,64.36
2023-03-21T20:09:41.287Z,64.91
2023-03-21T20:11:38.353Z,64.55
2023-03-21T20:14:05.442Z,65.25
2023-03-21T20:16:36.848Z,64.93
2023-03-21T20:19:10.176Z,65.10
2023-03-21T20:21:48.213Z,65.28
2023-03-21T20:24:18.778Z,65.65
2023-03-21T20:26:46.516Z,65.36
2023-03-21T20:30:14.645Z,65.03
2023-03-21T20:31:59.742Z,65.17
2023-03-21T20:34:26.300Z,65.31
2023-03-21T20:36:53.342Z,66.04
2023-03-21T20:39:20.143Z,65.51
2023-03-21T20:41:46.787Z,65.60
2023-03-21T20:44:42.293Z,65.15
2023-03-21T20:47:00.480Z,64.81
2023-03-21T20:49:28.465Z,64.66
2023-03-21T20:54:43.232Z,64.22
2023-03-21T20:57:10.185Z,64.47
2023-03-21T20:59:36.895Z,64.86
2023-03-21T21:02:03.804Z,65.23
2023-03-21T21:04:52.784Z,65.24
2023-03-21T21:07:22.514Z,65.29
2023-03-21T21:09:50.069Z,65.84
2023-03-21T21:12:19.345Z,66.13
2023-03-21T21:14:46.827Z,66.28
2023-03-21T21:20:01.911Z,66.94
2023-03-21T21:22:28.661Z,67.31
2023-03-21T21:24:55.202Z,66.82
2023-03-21T21:27:21.772Z,67.00
2023-03-21T21:29:50.198Z,67.50
2023-03-21T21:32:18.741Z,67.57
2023-03-21T21:34:45.629Z,67.69
2023-03-21T21:37:12.261Z,68.30
2023-03-21T21:39:40.264Z,68.57
2023-03-21T21:42:06.849Z,68.50
2023-03-21T21:44:33.378Z,68.52
2023-03-21T21:47:00.056Z,68.86
2023-03-21T21:49:27.930Z,68.96
2023-03-21T21:51:56.250Z,69.72
2023-03-21T21:54:22.941Z,69.26
2023-03-21T21:56:54.270Z,69.20
2023-03-21T21:59:22.188Z,69.78
2023-03-21T22:01:51.314Z,69.71
2023-03-21T22:04:18.923Z,70.08
2023-03-21T22:06:47.541Z,70.04
2023-03-21T22:09:15.864Z,70.05
2023-03-21T22:11:42.820Z,70.38
2023-03-21T22:14:09.447Z,70.47
2023-03-21T22:16:36.378Z,70.21
2023-03-21T22:19:03.282Z,70.31
2023-03-21T22:21:29.795Z,70.18
2023-03-21T22:23:56.325Z,70.60
2023-03-21T22:26:23.398Z,71.03
2023-03-21T22:28:49.979Z,70.99
2023-03-21T22:31:17.377Z,71.42
2023-03-21T22:33:44.580Z,71.58
2023-03-21T22:36:11.877Z,71.79
2023-03-21T22:38:38.518Z,71.92
2023-03-21T22:41:06.560Z,71.82
2023-03-21T22:43:34.314Z,72.25
2023-03-21T22:46:02.571Z,72.22
2023-03-21T22:48:32.608Z,72.45
2023-03-21T22:51:00.408Z,72.47
2023-03-21T22:53:27.448Z,72.46
2023-03-21T22:55:54.188Z,72.33
2023-03-21T22:58:21.107Z,72.40
2023-03-21T23:00:47.995Z,72.48
2023-03-21T23:03:16.750Z,72.28
2023-03-21T23:05:44.823Z,72.60
2023-03-21T23:08:12.847Z,72.54
2023-03-21T23:10:41.281Z,72.18
2023-03-21T23:13:08.118Z,72.39
2023-03-21T23:15:34.642Z,72.74
2023-03-21T23:18:01.365Z,72.62
2023-03-21T23:20:28.012Z,71.96
2023-03-21T23:22:54.612Z,72.51
2023-03-21T23:25:21.521Z,72.22
2023-03-21T23:27:48.269Z,72.80
2023-03-21T23:30:14.972Z,72.54
2023-03-21T23:32:42.143Z,72.53
2023-03-21T23:35:09.485Z,72.02
2023-03-21T23:37:36.048Z,72.20
2023-03-21T23:40:04.304Z,72.53
2023-03-21T23:42:30.924Z,71.72
2023-03-21T23:44:57.680Z,72.31
2023-03-21T23:47:24.207Z,71.80
2023-03-21T23:49:52.773Z,71.60
2023-03-21T23:52:19.677Z,72.27
2023-03-21T23:54:46.276Z,71.80
2023-03-21T23:57:12.811Z,71.15
2023-03-21T23:59:39.360Z,71.38
